Time;durP1;ratioP1;P1;durP2;ratioP2;P2;SDS_P1;SDS_P2;PMS_P1;PMS_P2;Temp;Humidity;BMP_temperature;BMP_pressure;BME280_temperature;BME280_humidity;BME280_pressure;Samples;Min_cycle;Max_cycle;Signal;HPM_P1;HPM_P2
2022/07/23 00:02:42;;;;;;;2.35;1.13;;;;;;;17.69;63.49;101776.75;6190335;28;20610;-69
2022/07/23 00:06:03;;;;;;;1.90;1.15;;;;;;;17.44;63.85;101765.63;6190915;28;20231;-68
2022/07/23 00:09:24;;;;;;;2.53;1.10;;;;;;;17.46;64.08;101760.00;6188563;28;20229;-68
2022/07/23 00:12:47;;;;;;;2.67;1.23;;;;;;;17.50;63.67;101745.94;6190519;28;20233;-69
2022/07/23 00:16:08;;;;;;;2.83;1.33;;;;;;;17.42;63.51;101739.53;6188550;28;20225;-69
2022/07/23 00:19:29;;;;;;;4.22;1.25;;;;;;;17.47;63.36;101735.31;6189833;28;20226;-68
2022/07/23 00:22:51;;;;;;;1.85;0.70;;;;;;;17.42;63.37;101742.25;6190248;28;20344;-69
2022/07/23 00:26:12;;;;;;;1.95;1.52;;;;;;;17.50;63.29;101743.19;6185652;28;20229;-68
2022/07/23 00:29:35;;;;;;;2.75;1.30;;;;;;;17.63;63.03;101747.41;6190006;28;20230;-69
2022/07/23 00:32:59;;;;;;;1.42;0.90;;;;;;;17.63;62.62;101742.78;6185685;28;20600;-67
2022/07/23 00:36:20;;;;;;;1.75;0.90;;;;;;;17.50;62.92;101739.66;6185276;28;20229;-68
2022/07/23 00:39:41;;;;;;;2.67;1.20;;;;;;;17.30;64.14;101747.13;6189663;28;20226;-68
2022/07/23 00:43:02;;;;;;;4.57;1.02;;;;;;;17.16;65.14;101736.78;6188702;28;20557;-70
2022/07/23 00:46:24;;;;;;;2.78;1.38;;;;;;;17.28;65.36;101742.84;6200112;28;20234;-68
2022/07/23 00:49:46;;;;;;;2.60;1.10;;;;;;;17.10;66.98;101742.00;6186959;28;20237;-69
2022/07/23 00:53:08;;;;;;;2.30;1.20;;;;;;;17.20;66.47;101740.91;6185659;28;20320;-69
2022/07/23 00:56:30;;;;;;;2.35;1.17;;;;;;;17.01;67.25;101735.63;6183372;28;20233;-68
2022/07/23 00:59:52;;;;;;;1.38;1.17;;;;;;;16.95;67.34;101735.41;6200798;28;20324;-69
2022/07/23 01:03:14;;;;;;;2.33;1.20;;;;;;;16.95;67.59;101740.84;6188860;28;20222;-70
2022/07/23 01:06:36;;;;;;;1.98;0.93;;;;;;;16.96;67.41;101737.13;6186534;28;20528;-68
2022/07/23 01:09:59;;;;;;;2.22;1.00;;;;;;;17.17;66.99;101730.31;6187062;28;20889;-69
2022/07/23 01:13:20;;;;;;;5.70;2.15;;;;;;;17.23;66.96;101724.22;6186806;28;20238;-68
2022/07/23 01:16:42;;;;;;;2.85;1.08;;;;;;;17.17;67.38;101734.91;6186927;28;20554;-68
2022/07/23 01:20:06;;;;;;;2.10;1.13;;;;;;;17.08;66.93;101730.41;6187006;28;20535;-68
2022/07/23 01:23:28;;;;;;;2.22;1.00;;;;;;;17.04;67.32;101721.72;6190667;28;20614;-68
2022/07/23 01:26:52;;;;;;;3.90;1.30;;;;;;;17.10;67.23;101729.25;6186017;28;20230;-69
2022/07/23 01:30:14;;;;;;;2.55;0.93;;;;;;;17.04;67.13;101716.25;6202268;28;20226;-68
2022/07/23 01:33:35;;;;;;;1.60;1.10;;;;;;;17.04;67.64;101723.56;6202354;28;20237;-68
2022/07/23 01:36:56;;;;;;;2.42;1.10;;;;;;;16.86;68.15;101723.56;6181451;28;20229;-68
2022/07/23 01:40:19;;;;;;;2.95;1.15;;;;;;;17.14;67.12;101721.59;6183370;28;20225;-69
2022/07/23 01:43:41;;;;;;;2.88;1.48;;;;;;;17.26;66.62;101706.72;6199533;28;20336;-69
2022/07/23 01:47:02;;;;;;;3.95;1.40;;;;;;;17.24;66.42;101715.06;6182116;28;20234;-68
2022/07/23 01:50:24;;;;;;;1.40;1.08;;;;;;;17.23;66.22;101710.59;6201848;28;20233;-69
2022/07/23 01:54:03;;;;;;;4.30;1.40;;;;;;;17.33;66.07;101708.66;6183936;28;20234;-69
2022/07/23 01:57:26;;;;;;;3.85;0.90;;;;;;;17.26;65.40;101696.66;6201632;28;20233;-69
2022/07/23 02:00:47;;;;;;;4.88;1.65;;;;;;;17.35;65.57;101684.81;6188255;28;20764;-69
2022/07/23 02:04:07;;;;;;;3.05;0.90;;;;;;;17.30;65.68;101678.97;6192029;28;20607;-69
2022/07/23 02:07:29;;;;;;;3.40;1.13;;;;;;;17.28;65.87;101672.84;6181584;28;20681;-69
2022/07/23 02:10:51;;;;;;;2.58;1.38;;;;;;;17.15;66.09;101674.25;6200819;28;20352;-68
2022/07/23 02:14:13;;;;;;;3.22;1.00;;;;;;;16.95;66.50;101668.16;6200973;28;20242;-68
2022/07/23 02:17:34;;;;;;;1.13;1.00;;;;;;;17.18;66.39;101682.97;6184737;28;20229;-68
2022/07/23 02:20:56;;;;;;;1.85;1.15;;;;;;;17.26;66.10;101674.88;6197873;28;20233;-68
2022/07/23 02:24:17;;;;;;;10.48;1.48;;;;;;;17.29;66.02;101674.53;6191523;28;20233;-69
2022/07/23 02:27:39;;;;;;;1.17;1.00;;;;;;;17.19;66.13;101665.59;6185263;28;20226;-69
2022/07/23 02:31:03;;;;;;;0.77;0.70;;;;;;;17.02;66.48;101671.09;6187517;28;20673;-69
2022/07/23 02:34:24;;;;;;;2.50;1.40;;;;;;;17.13;66.60;101671.69;6185150;28;20238;-69
2022/07/23 02:37:45;;;;;;;2.28;0.98;;;;;;;17.15;66.45;101675.13;6185183;28;20563;-69
2022/07/23 02:41:06;;;;;;;1.98;0.82;;;;;;;17.04;66.60;101671.81;6187854;28;20229;-68
2022/07/23 02:44:27;;;;;;;1.83;1.10;;;;;;;16.91;66.87;101674.94;6200407;28;20237;-68
2022/07/23 02:47:50;;;;;;;1.52;0.98;;;;;;;16.74;67.21;101667.63;6201331;28;20783;-69
2022/07/23 02:51:11;;;;;;;4.22;1.23;;;;;;;16.69;68.16;101668.09;6190315;28;20229;-68
2022/07/23 02:54:37;;;;;;;2.63;1.75;;;;;;;16.70;68.17;101674.41;6182177;28;20735;-69
2022/07/23 02:57:58;;;;;;;1.70;0.93;;;;;;;16.62;68.61;101674.31;6189945;28;20234;-69
2022/07/23 03:01:18;;;;;;;2.65;1.50;;;;;;;16.68;68.03;101670.97;6189010;28;20229;-69
2022/07/23 03:04:43;;;;;;;4.65;2.38;;;;;;;16.54;68.39;101668.81;6203433;28;20239;-68
2022/07/23 03:08:05;;;;;;;2.75;1.27;;;;;;;16.54;68.42;101661.47;6203400;28;20230;-68
2022/07/23 03:11:29;;;;;;;2.30;1.40;;;;;;;16.60;68.90;101658.16;6197007;28;20332;-69
2022/07/23 03:14:50;;;;;;;3.08;1.65;;;;;;;16.69;68.71;101661.78;6192035;28;20232;-69
2022/07/23 03:18:11;;;;;;;4.78;2.40;;;;;;;16.64;69.03;101651.38;6202319;28;20226;-68
2022/07/23 03:21:33;;;;;;;1.50;0.90;;;;;;;16.67;69.36;101645.63;6186601;28;20226;-70
2022/07/23 03:24:55;;;;;;;2.83;1.25;;;;;;;16.62;69.17;101649.81;6191845;28;20265;-68
2022/07/23 03:28:19;;;;;;;3.38;1.60;;;;;;;16.67;68.97;101655.63;6203311;28;20234;-68
2022/07/23 03:31:40;;;;;;;1.95;1.63;;;;;;;16.58;69.81;101648.44;6189794;28;20242;-68
2022/07/23 03:35:03;;;;;;;2.05;1.35;;;;;;;16.54;69.96;101647.88;6188456;28;20230;-68
2022/07/23 03:38:25;;;;;;;2.13;1.38;;;;;;;16.61;70.02;101646.25;6182460;28;20233;-69
2022/07/23 03:41:46;;;;;;;4.45;1.65;;;;;;;16.61;70.52;101642.66;6201036;28;20226;-69
2022/07/23 03:45:08;;;;;;;2.42;1.45;;;;;;;16.53;70.76;101651.63;6190081;28;20258;-69
2022/07/23 03:48:29;;;;;;;2.85;1.83;;;;;;;16.60;70.78;101649.13;6184142;28;20372;-70
2022/07/23 03:51:50;;;;;;;1.15;1.08;;;;;;;16.61;71.05;101657.13;6202710;28;20245;-69
2022/07/23 03:55:12;;;;;;;2.25;1.27;;;;;;;16.58;71.35;101656.59;6188696;28;20226;-68
2022/07/23 03:58:33;;;;;;;1.80;1.67;;;;;;;16.49;71.68;101666.53;6188445;28;20342;-69
2022/07/23 04:01:54;;;;;;;2.25;1.20;;;;;;;16.56;70.99;101661.34;6187032;28;20234;-68
2022/07/23 04:05:15;;;;;;;3.20;1.48;;;;;;;16.57;71.02;101668.47;6204874;28;20233;-70
2022/07/23 04:08:38;;;;;;;2.85;1.92;;;;;;;16.71;70.39;101676.09;6188851;28;20321;-69
2022/07/23 04:12:00;;;;;;;2.58;2.30;;;;;;;16.85;70.28;101672.84;6189030;28;20245;-69
2022/07/23 04:15:21;;;;;;;2.83;1.50;;;;;;;17.11;69.24;101670.13;6189364;28;20620;-68
2022/07/23 04:18:42;;;;;;;3.47;2.10;;;;;;;16.90;69.84;101672.38;6186920;28;20230;-69
2022/07/23 04:22:10;;;;;;;2.42;1.38;;;;;;;17.07;69.03;101679.63;6205617;28;20226;-68
2022/07/23 04:25:32;;;;;;;1.73;1.63;;;;;;;17.13;69.13;101679.88;6186397;28;20234;-68
2022/07/23 04:28:54;;;;;;;3.13;1.67;;;;;;;16.88;69.92;101680.69;6186061;28;20237;-69
2022/07/23 04:32:15;;;;;;;1.83;1.70;;;;;;;16.89;70.16;101684.28;6186731;28;20233;-69
2022/07/23 04:35:37;;;;;;;5.95;3.85;;;;;;;16.92;69.88;101676.63;6188078;28;20250;-68
2022/07/23 04:39:07;;;;;;;3.50;2.60;;;;;;;17.05;69.76;101684.41;6189348;28;20503;-69
2022/07/23 04:42:28;;;;;;;3.60;1.55;;;;;;;17.03;69.90;101684.56;6203103;28;20233;-69
2022/07/23 04:45:51;;;;;;;3.30;1.65;;;;;;;16.88;70.17;101686.13;6190449;28;20261;-69
2022/07/23 04:49:12;;;;;;;3.95;2.20;;;;;;;16.54;71.66;101694.16;6186436;28;20233;-68
2022/07/23 04:52:33;;;;;;;3.10;1.60;;;;;;;16.58;71.60;101690.09;6178798;28;20233;-69
2022/07/23 04:55:54;;;;;;;3.10;2.10;;;;;;;16.61;72.20;101692.53;6188206;28;20321;-68
2022/07/23 04:59:15;;;;;;;3.95;2.30;;;;;;;16.70;71.74;101698.91;6186108;28;20226;-69
2022/07/23 05:02:39;;;;;;;5.47;1.65;;;;;;;16.76;71.72;101693.69;6188637;28;20579;-69
2022/07/23 05:06:00;;;;;;;10.02;2.03;;;;;;;16.67;72.07;101702.78;6202437;28;20238;-68
2022/07/23 05:09:22;;;;;;;4.47;2.28;;;;;;;16.65;71.15;101698.50;6184335;28;20233;-68
2022/07/23 05:12:43;;;;;;;2.97;1.70;;;;;;;16.65;71.02;101695.78;6181333;28;20253;-69
2022/07/23 05:16:04;;;;;;;2.00;1.30;;;;;;;16.70;70.81;101696.19;6186008;28;20242;-68
2022/07/23 05:19:28;;;;;;;3.95;1.40;;;;;;;16.86;69.93;101684.56;6187047;28;20286;-69
2022/07/23 05:22:49;;;;;;;0.55;0.55;;;;;;;16.89;68.91;101689.72;6201069;28;20373;-68
2022/07/23 05:26:11;;;;;;;1.73;1.17;;;;;;;16.85;69.31;101705.53;6183419;28;20229;-68
2022/07/23 05:29:32;;;;;;;3.25;1.20;;;;;;;16.78;69.00;101704.44;6201619;28;20229;-69
2022/07/23 05:32:53;;;;;;;1.23;0.98;;;;;;;16.65;69.52;101706.66;6188326;28;20317;-68
2022/07/23 05:36:15;;;;;;;2.35;1.10;;;;;;;16.73;68.89;101709.47;6185143;28;20668;-69
2022/07/23 05:39:56;;;;;;;2.17;1.88;;;;;;;16.81;68.95;101706.00;6188453;28;20370;-69
2022/07/23 05:43:17;;;;;;;1.63;1.10;;;;;;;16.97;67.40;101706.13;6183900;28;20230;-68
2022/07/23 05:46:38;;;;;;;3.28;1.30;;;;;;;17.08;66.95;101708.63;6184485;28;20604;-69
2022/07/23 05:50:04;;;;;;;2.10;0.93;;;;;;;16.97;67.48;101706.13;6201831;28;20515;-68
2022/07/23 05:53:38;;;;;;;2.05;0.88;;;;;;;17.02;67.61;101711.97;6200634;28;20560;-68
2022/07/23 05:57:04;;;;;;;0.82;0.82;;;;;;;17.10;67.31;101698.41;6201454;28;20222;-70
2022/07/23 06:00:25;;;;;;;1.80;1.05;;;;;;;16.77;68.49;101710.91;6185701;28;20234;-69
2022/07/23 06:03:46;;;;;;;2.10;1.00;;;;;;;16.60;69.89;101707.16;6186694;28;20257;-69
2022/07/23 06:07:07;;;;;;;3.90;1.40;;;;;;;16.67;69.15;101707.38;6201646;28;20222;-69
2022/07/23 06:10:30;;;;;;;3.83;1.23;;;;;;;16.61;69.66;101714.31;6187122;28;20229;-68
2022/07/23 06:13:51;;;;;;;2.47;1.40;;;;;;;16.92;68.87;101713.94;6186121;28;20256;-68
2022/07/23 06:17:14;;;;;;;1.02;1.00;;;;;;;16.94;69.04;101715.47;6187063;28;20316;-69
2022/07/23 06:20:35;;;;;;;2.67;1.40;;;;;;;17.25;68.10;101705.84;6195004;28;20615;-69
2022/07/23 06:23:56;;;;;;;2.35;1.45;;;;;;;17.15;68.26;101709.69;6198162;28;20226;-68
2022/07/23 06:27:19;;;;;;;1.98;1.00;;;;;;;17.24;68.84;101708.72;6198365;28;20230;-68
2022/07/23 06:30:40;;;;;;;3.30;1.65;;;;;;;17.60;67.87;101712.25;6190144;28;20222;-69
2022/07/23 06:34:02;;;;;;;2.88;1.20;;;;;;;17.61;67.15;101708.53;6185655;28;20265;-68
2022/07/23 06:37:23;;;;;;;6.05;2.15;;;;;;;17.52;67.42;101713.91;6196047;28;20230;-68
2022/07/23 06:40:44;;;;;;;3.95;1.52;;;;;;;17.36;68.20;101707.47;6187022;28;20229;-68
2022/07/23 06:44:06;;;;;;;2.75;1.27;;;;;;;17.62;67.71;101713.81;6187206;28;20246;-69
2022/07/23 06:47:30;;;;;;;2.95;1.70;;;;;;;17.54;68.40;101711.88;6183782;28;20234;-68
2022/07/23 06:50:52;;;;;;;2.28;2.08;;;;;;;17.35;69.33;101717.53;6201066;28;20234;-69
2022/07/23 06:54:17;;;;;;;2.22;1.52;;;;;;;17.16;70.04;101723.16;6183352;28;20277;-69
2022/07/23 06:57:38;;;;;;;2.35;1.65;;;;;;;17.17;69.08;101716.69;6184862;28;20687;-69
2022/07/23 07:01:01;;;;;;;2.17;1.85;;;;;;;16.92;70.83;101733.00;6187369;28;20234;-68
2022/07/23 07:04:22;;;;;;;3.97;2.03;;;;;;;17.15;69.46;101734.19;6187656;28;20237;-69
2022/07/23 07:07:43;;;;;;;3.35;1.60;;;;;;;17.39;68.78;101732.53;6185686;28;20226;-69
2022/07/23 07:11:04;;;;;;;4.95;1.77;;;;;;;17.52;68.71;101727.53;6187447;28;20608;-69
2022/07/23 07:14:25;;;;;;;1.98;1.45;;;;;;;18.03;67.65;101737.56;6187564;28;20241;-68
2022/07/23 07:17:48;;;;;;;1.77;1.65;;;;;;;17.54;67.09;101738.31;6186641;28;20731;-69
2022/07/23 07:21:09;;;;;;;2.67;1.40;;;;;;;17.77;66.07;101739.47;6187068;28;20226;-69
2022/07/23 07:24:30;;;;;;;1.80;1.23;;;;;;;18.05;65.28;101732.78;6187608;28;20234;-67
2022/07/23 07:27:51;;;;;;;1.45;1.33;;;;;;;17.93;65.38;101736.84;6186493;28;20237;-68
2022/07/23 07:31:12;;;;;;;4.07;1.33;;;;;;;17.87;65.87;101744.81;6183642;28;20520;-69
2022/07/23 07:34:34;;;;;;;1.00;0.80;;;;;;;17.41;69.25;101751.47;6184986;28;20234;-69
2022/07/23 07:37:55;;;;;;;1.35;1.20;;;;;;;17.43;71.86;101753.03;6190639;28;20229;-69
2022/07/23 07:41:16;;;;;;;2.60;2.20;;;;;;;17.72;71.83;101751.88;6191861;28;20241;-68
2022/07/23 07:44:37;;;;;;;2.58;1.33;;;;;;;17.54;71.35;101749.22;6190101;28;20229;-69
2022/07/23 07:47:58;;;;;;;1.40;0.70;;;;;;;18.10;70.24;101751.41;6189241;28;20844;-69
2022/07/23 07:51:20;;;;;;;1.33;0.95;;;;;;;18.05;69.72;101737.38;6467688;22;20241;-69
2022/07/23 07:54:42;;;;;;;3.30;1.30;;;;;;;17.86;69.57;101749.41;6183513;28;20320;-68
2022/07/23 07:58:03;;;;;;;1.42;0.52;;;;;;;17.80;68.84;101743.72;6181725;28;20226;-69
2022/07/23 08:01:24;;;;;;;0.98;0.80;;;;;;;18.57;67.83;101749.03;6189146;28;20230;-69
2022/07/23 08:04:45;;;;;;;0.55;0.55;;;;;;;18.64;66.04;101742.78;6189441;28;20832;-68
2022/07/23 08:08:09;;;;;;;0.88;0.88;;;;;;;18.60;65.82;101740.53;6189664;28;20238;-68
2022/07/23 08:11:30;;;;;;;0.98;0.70;;;;;;;18.58;65.75;101737.13;6187700;28;20225;-69
2022/07/23 08:14:51;;;;;;;0.63;0.63;;;;;;;18.31;66.35;101741.75;6187126;28;20241;-69
2022/07/23 08:18:11;;;;;;;9.88;1.52;;;;;;;18.78;65.13;101743.97;6188916;28;20225;-69
2022/07/23 08:21:32;;;;;;;2.80;1.05;;;;;;;18.02;66.23;101741.28;6186607;28;20230;-70
2022/07/23 08:24:54;;;;;;;3.17;1.00;;;;;;;17.97;66.41;101760.03;6190352;28;20233;-68
2022/07/23 08:28:16;;;;;;;2.78;0.85;;;;;;;17.54;71.30;101760.94;6182228;28;20266;-68
2022/07/23 08:31:37;;;;;;;1.33;0.80;;;;;;;16.95;74.40;101766.22;6184949;28;20226;-69
2022/07/23 08:34:57;;;;;;;1.98;0.73;;;;;;;16.91;74.83;101781.16;6184324;28;20233;-68
2022/07/23 08:38:19;;;;;;;5.45;1.08;;;;;;;16.91;74.67;101775.72;6183616;28;20226;-68
2022/07/23 08:41:42;;;;;;;1.58;0.85;;;;;;;17.05;71.99;101769.72;6188543;28;20615;-68
2022/07/23 08:45:04;;;;;;;1.00;0.90;;;;;;;17.12;71.22;101767.22;6190083;28;20316;-69
2022/07/23 08:48:28;;;;;;;1.25;1.00;;;;;;;17.58;70.04;101760.66;6186881;28;20468;-69
2022/07/23 08:51:49;;;;;;;0.73;0.60;;;;;;;17.94;68.07;101752.16;6187730;28;20666;-68
2022/07/23 08:55:10;;;;;;;1.02;0.80;;;;;;;18.41;66.47;101749.84;6184641;28;20588;-68
2022/07/23 08:58:32;;;;;;;1.17;1.08;;;;;;;18.75;65.66;101750.66;6178864;28;20233;-68
2022/07/23 09:01:53;;;;;;;1.15;0.80;;;;;;;18.76;65.79;101748.75;6188281;28;20254;-69
2022/07/23 09:05:15;;;;;;;0.95;0.90;;;;;;;18.66;64.93;101750.78;6189469;28;20573;-69
2022/07/23 09:08:37;;;;;;;0.70;0.65;;;;;;;18.98;63.81;101745.38;6187961;28;20841;-68
2022/07/23 09:12:05;;;;;;;0.65;0.50;;;;;;;19.15;63.03;101755.28;6188793;28;20238;-69
2022/07/23 09:15:28;;;;;;;0.60;0.60;;;;;;;19.23;61.29;101752.59;6185550;28;20241;-69
2022/07/23 09:18:51;;;;;;;0.82;0.82;;;;;;;18.66;61.09;101748.06;6185438;28;20405;-69
2022/07/23 09:22:23;;;;;;;1.15;0.90;;;;;;;19.68;59.98;101746.56;6181102;28;20233;-69
2022/07/23 09:25:44;;;;;;;0.90;0.70;;;;;;;19.93;59.74;101743.63;6187701;28;20248;-68
2022/07/23 09:29:12;;;;;;;0.82;0.80;;;;;;;19.24;59.37;101754.28;6184954;28;20592;-68
2022/07/23 09:32:34;;;;;;;1.80;0.80;;;;;;;18.86;60.79;101755.78;6175658;28;20229;-69
2022/07/23 09:35:56;;;;;;;1.75;1.02;;;;;;;18.88;61.81;101752.88;6186350;28;20594;-69
2022/07/23 09:39:28;;;;;;;0.95;0.85;;;;;;;18.93;61.29;101750.50;6183060;28;20233;-69
2022/07/23 09:42:56;;;;;;;1.02;0.77;;;;;;;19.44;59.63;101760.31;6181072;28;21204;-69
2022/07/23 09:46:23;;;;;;;1.75;0.75;;;;;;;19.70;59.42;101750.84;6186454;28;20225;-68
2022/07/23 09:49:59;;;;;;;0.60;0.60;;;;;;;19.40;60.02;101750.72;6186361;28;20430;-69
2022/07/23 09:53:25;;;;;;;1.05;0.93;;;;;;;19.10;60.19;101753.09;6179078;28;20800;-68
2022/07/23 09:56:48;;;;;;;3.13;0.57;;;;;;;19.05;59.94;101747.25;6185818;28;20257;-68
2022/07/23 10:00:14;;;;;;;1.08;0.82;;;;;;;18.86;59.52;101752.19;6186050;28;20234;-69
2022/07/23 10:03:35;;;;;;;0.85;0.60;;;;;;;18.90;58.89;101759.88;6179844;28;20234;-69
2022/07/23 10:07:22;;;;;;;0.93;0.90;;;;;;;19.25;58.70;101753.28;6179574;28;20229;-69
2022/07/23 10:11:02;;;;;;;0.60;0.60;;;;;;;19.50;58.55;101756.88;6185988;28;20591;-68
2022/07/23 10:14:44;;;;;;;1.17;0.80;;;;;;;18.87;59.88;101759.38;6196732;28;20666;-69
2022/07/23 10:18:05;;;;;;;0.80;0.80;;;;;;;18.87;60.05;101762.09;6185302;28;20234;-68
2022/07/23 10:21:35;;;;;;;1.77;0.80;;;;;;;18.77;59.90;101778.66;6187049;28;20226;-69
2022/07/23 10:25:04;;;;;;;0.50;0.50;;;;;;;19.15;59.02;101768.97;6186564;28;20316;-69
2022/07/23 10:28:47;;;;;;;1.50;0.80;;;;;;;19.45;57.98;101771.06;6185617;28;20248;-68
2022/07/23 10:32:21;;;;;;;0.70;0.63;;;;;;;19.40;56.50;101764.41;6186017;28;20324;-69
2022/07/23 10:35:49;;;;;;;0.80;0.70;;;;;;;19.65;56.66;101780.59;6187203;28;20249;-69
2022/07/23 10:39:16;;;;;;;0.73;0.70;;;;;;;19.43;56.61;101762.16;6186472;28;20788;-68
2022/07/23 10:42:39;;;;;;;1.17;0.77;;;;;;;20.25;55.34;101772.81;6185600;28;20265;-69
2022/07/23 10:46:27;;;;;;;0.85;0.70;;;;;;;20.85;53.50;101791.34;6187537;28;20226;-68
2022/07/23 10:49:49;;;;;;;1.88;1.00;;;;;;;21.15;52.71;101780.34;6185225;28;20333;-68
2022/07/23 10:53:17;;;;;;;1.85;1.15;;;;;;;21.27;53.16;101792.63;6187119;28;20217;-69
2022/07/23 10:57:07;;;;;;;1.13;0.60;;;;;;;21.46;52.80;101781.13;6185155;28;20242;-69
2022/07/23 11:00:31;;;;;;;0.55;0.40;;;;;;;21.76;52.03;101771.06;6181621;28;20619;-68
2022/07/23 11:04:00;;;;;;;0.63;0.50;;;;;;;21.49;52.31;101779.91;6186570;28;20332;-70
2022/07/23 11:07:21;;;;;;;1.15;0.63;;;;;;;21.02;53.63;101782.88;6183744;28;20618;-69
2022/07/23 11:10:44;;;;;;;0.70;0.70;;;;;;;20.72;54.73;101786.44;6190619;28;20292;-69
2022/07/23 11:14:05;;;;;;;0.65;0.65;;;;;;;20.49;55.90;101777.31;6185350;28;20257;-68
2022/07/23 11:17:28;;;;;;;1.23;0.68;;;;;;;20.48;55.26;101783.84;6189678;28;20261;-68
2022/07/23 11:20:49;;;;;;;0.98;0.50;;;;;;;20.46;54.93;101780.41;6189788;28;20234;-68
2022/07/23 11:24:13;;;;;;;1.42;0.80;;;;;;;21.35;52.03;101773.34;6189286;28;21052;-68
2022/07/23 11:27:40;;;;;;;0.95;0.68;;;;;;;21.46;51.10;101777.56;6189078;28;20492;-68
2022/07/23 11:31:17;;;;;;;0.85;0.50;;;;;;;;;;6202281;28;20787;-69
2022/07/23 11:34:42;;;;;;;1.67;0.60;;;;;;;21.98;50.94;101769.34;6187995;28;20241;-69
2022/07/23 11:38:08;;;;;;;0.50;0.50;;;;;;;21.35;52.92;101775.25;6191760;28;20221;-69
2022/07/23 11:41:30;;;;;;;0.95;0.73;;;;;;;21.50;53.85;101778.88;6189595;28;20618;-69
2022/07/23 11:44:51;;;;;;;0.73;0.70;;;;;;;22.15;53.91;101770.88;6186857;28;20230;-69
2022/07/23 11:48:18;;;;;;;0.90;0.60;;;;;;;22.38;51.62;101760.63;6186749;28;20265;-69
2022/07/23 11:51:41;;;;;;;1.10;0.70;;;;;;;21.86;53.15;101770.84;6169630;28;20229;-69
2022/07/23 11:55:04;;;;;;;1.42;0.50;;;;;;;21.21;53.77;101774.16;6184017;28;20230;-69
2022/07/23 11:58:25;;;;;;;2.55;2.35;;;;;;;20.69;55.53;101779.41;6187019;28;20609;-69
2022/07/23 12:01:57;;;;;;;1.70;1.60;;;;;;;20.50;56.76;101788.13;6189687;28;20333;-69
2022/07/23 12:05:20;;;;;;;2.05;0.57;;;;;;;20.23;57.64;101785.81;6184463;28;20229;-69
2022/07/23 12:08:43;;;;;;;1.70;0.80;;;;;;;19.94;57.97;101805.53;6188254;28;20230;-68
2022/07/23 12:12:04;;;;;;;1.85;0.88;;;;;;;19.94;58.22;101808.25;6189434;28;20268;-69
2022/07/23 12:15:28;;;;;;;0.95;0.70;;;;;;;19.86;58.04;101810.16;6188822;28;20540;-69
2022/07/23 12:18:51;;;;;;;1.75;0.85;;;;;;;20.32;57.01;101803.06;6188117;28;20253;-69
2022/07/23 12:22:14;;;;;;;1.42;1.00;;;;;;;20.60;55.83;101807.94;6189291;28;20511;-69
2022/07/23 12:25:38;;;;;;;1.85;0.88;;;;;;;20.38;56.83;101807.84;6183102;28;20239;-69
2022/07/23 12:28:59;;;;;;;2.00;1.13;;;;;;;20.17;57.55;101807.53;6181306;28;20238;-69
2022/07/23 12:32:22;;;;;;;2.38;1.75;;;;;;;19.83;57.93;101814.13;6176092;28;20230;-69
2022/07/23 12:35:45;;;;;;;1.10;1.00;;;;;;;19.77;58.07;101822.16;6182379;28;20234;-69
2022/07/23 12:39:06;;;;;;;1.83;0.90;;;;;;;19.72;58.26;101821.81;6168580;28;20245;-69
2022/07/23 12:42:30;;;;;;;1.83;1.13;;;;;;;20.04;57.57;101819.03;6184122;28;20615;-69
2022/07/23 12:45:52;;;;;;;4.72;1.20;;;;;;;20.81;56.29;101814.66;6186229;28;20238;-69
2022/07/23 12:49:26;;;;;;;1.30;1.17;;;;;;;22.44;52.06;101800.22;6185847;28;20313;-69
2022/07/23 12:52:47;;;;;;;2.78;0.95;;;;;;;22.50;50.71;101803.06;6183158;28;20234;-69
2022/07/23 12:56:10;;;;;;;2.97;2.05;;;;;;;22.11;52.48;101813.50;6180565;28;20237;-69
2022/07/23 12:59:33;;;;;;;1.90;1.35;;;;;;;21.68;52.37;101811.47;6184447;28;20225;-68
2022/07/23 13:02:53;;;;;;;2.30;0.98;;;;;;;21.83;51.71;101810.50;6188295;28;20286;-69
2022/07/23 13:06:14;;;;;;;1.25;1.15;;;;;;;21.79;52.51;101820.13;6180648;28;20250;-68
2022/07/23 13:09:35;;;;;;;2.88;1.13;;;;;;;22.70;49.68;101812.44;6186180;28;20497;-69
2022/07/23 13:12:56;;;;;;;3.03;0.70;;;;;;;21.60;51.59;101817.91;6172330;28;20230;-69
2022/07/23 13:16:19;;;;;;;1.17;0.80;;;;;;;20.90;53.27;101817.19;6184426;28;20238;-69
2022/07/23 13:19:40;;;;;;;1.85;1.00;;;;;;;21.05;53.71;101828.28;6187738;28;20222;-69
2022/07/23 13:23:01;;;;;;;1.80;1.00;;;;;;;21.41;52.53;101826.63;6184729;28;20234;-70
2022/07/23 13:26:23;;;;;;;1.20;1.10;;;;;;;22.09;50.83;101821.06;6178924;28;20234;-69
2022/07/23 13:29:44;;;;;;;1.00;0.65;;;;;;;22.16;50.30;101828.34;6185840;28;20639;-71
2022/07/23 13:33:07;;;;;;;1.98;0.90;;;;;;;21.16;51.48;101828.69;6188697;28;20284;-70
2022/07/23 13:36:28;;;;;;;0.70;0.65;;;;;;;20.84;52.92;101839.00;6186134;28;20241;-70
2022/07/23 13:39:49;;;;;;;1.08;0.95;;;;;;;21.14;53.20;101835.41;6185555;28;20599;-70
2022/07/23 13:43:11;;;;;;;1.02;0.90;;;;;;;21.47;52.14;101834.13;6175411;28;20229;-69
2022/07/23 13:46:32;;;;;;;2.47;0.88;;;;;;;21.10;53.04;101839.53;6186492;28;20230;-69
2022/07/23 13:49:54;;;;;;;2.92;1.27;;;;;;;20.91;54.30;101834.47;6184864;28;20560;-69
2022/07/23 13:53:16;;;;;;;3.20;1.00;;;;;;;20.50;54.88;101842.91;6180922;28;20977;-68
2022/07/23 13:56:38;;;;;;;0.77;0.77;;;;;;;20.43;55.42;101841.91;6185926;28;20620;-68
2022/07/23 13:59:59;;;;;;;1.05;0.95;;;;;;;21.14;53.75;101839.00;6182027;28;20631;-69
2022/07/23 14:03:22;;;;;;;0.82;0.77;;;;;;;22.81;49.83;101833.09;6175884;28;20325;-69
2022/07/23 14:06:45;;;;;;;1.58;0.85;;;;;;;22.12;49.86;101832.53;6191417;28;20230;-70
2022/07/23 14:10:08;;;;;;;0.70;0.70;;;;;;;21.22;52.31;101849.06;6184892;28;20519;-69
2022/07/23 14:13:28;;;;;;;0.90;0.85;;;;;;;20.77;54.40;101836.09;6180157;28;20325;-70
2022/07/23 14:16:49;;;;;;;0.98;0.90;;;;;;;20.73;55.62;101847.59;6177900;28;20320;-69
2022/07/23 14:20:12;;;;;;;2.50;1.20;;;;;;;20.63;56.41;101840.44;6181468;28;20254;-69
2022/07/23 14:23:34;;;;;;;1.30;0.93;;;;;;;20.99;54.47;101861.84;6176484;28;20233;-70
2022/07/23 14:26:55;;;;;;;3.15;1.60;;;;;;;22.14;51.00;101851.56;6181846;28;20226;-69
2022/07/23 14:30:16;;;;;;;3.33;1.20;;;;;;;22.67;49.76;101845.84;6180127;28;20229;-68
2022/07/23 14:33:37;;;;;;;1.20;0.88;;;;;;;23.10;48.96;101834.91;6179508;28;20242;-70
2022/07/23 14:36:59;;;;;;;1.48;1.15;;;;;;;22.24;50.26;101852.13;6185848;28;20264;-69
2022/07/23 14:40:22;;;;;;;0.88;0.35;;;;;;;22.21;50.14;101847.91;6176088;28;20227;-68
2022/07/23 14:43:43;;;;;;;3.28;1.30;;;;;;;21.63;51.66;101858.72;6177255;28;20344;-69
2022/07/23 14:47:05;;;;;;;2.83;0.90;;;;;;;21.27;52.26;101863.94;6188870;28;20844;-69
2022/07/23 14:50:27;;;;;;;1.60;0.93;;;;;;;21.57;51.64;101859.41;6187404;28;20283;-69
2022/07/23 14:53:48;;;;;;;0.95;0.90;;;;;;;21.37;51.26;101856.34;6184734;28;20238;-69
2022/07/23 14:57:10;;;;;;;1.70;1.60;;;;;;;21.05;52.25;101859.28;6181630;28;20238;-69
2022/07/23 15:00:31;;;;;;;1.40;1.30;;;;;;;21.34;52.12;101864.91;6184997;28;20237;-70
2022/07/23 15:03:52;;;;;;;0.98;0.88;;;;;;;21.21;52.37;101861.94;6185343;28;20234;-69
2022/07/23 15:07:12;;;;;;;1.20;0.93;;;;;;;21.32;51.93;101863.38;6183580;28;20308;-68
2022/07/23 15:10:33;;;;;;;1.50;0.73;;;;;;;20.88;53.15;101863.09;6188754;28;20226;-69
2022/07/23 15:13:56;;;;;;;1.35;1.00;;;;;;;20.76;52.93;101869.19;6185253;28;20456;-69
2022/07/23 15:17:17;;;;;;;0.95;0.80;;;;;;;20.78;52.77;101878.91;6184901;28;20618;-69
2022/07/23 15:20:38;;;;;;;1.00;0.77;;;;;;;20.69;52.97;101872.59;6192118;28;20229;-71
2022/07/23 15:23:59;;;;;;;3.45;1.27;;;;;;;19.95;54.48;101872.09;6185400;28;20841;-69
2022/07/23 15:27:20;;;;;;;4.22;0.88;;;;;;;20.33;54.33;101870.50;6184043;28;20218;-68
2022/07/23 15:30:42;;;;;;;2.00;1.05;;;;;;;20.58;53.92;101872.16;6184682;28;20234;-69
2022/07/23 15:34:03;;;;;;;1.30;0.93;;;;;;;20.46;54.43;101865.34;6184294;28;20238;-69
2022/07/23 15:37:24;;;;;;;1.42;0.88;;;;;;;20.48;54.82;101879.72;6183986;28;20234;-68
2022/07/23 15:40:45;;;;;;;2.22;1.00;;;;;;;20.76;53.71;101877.41;6190852;28;20659;-69
2022/07/23 15:44:06;;;;;;;0.80;0.80;;;;;;;20.80;54.00;101879.59;6188527;28;20222;-70
2022/07/23 15:47:29;;;;;;;2.55;0.98;;;;;;;21.34;51.60;101881.38;6187277;28;20591;-69